Endeavour — C6BE4 — position and weather

sailwx.info

Track history (hours):
 
Tides and Currents Weather Stations Pressure Air Temp Water Temp Dewpoint Dewpoint Depression Visibility Wind Speed Wind Dir Waves Ship Positions

Endeavour

Operator: Lindblad Expeditions

Last reported at 2020-May-06 06:45 UTC. Time now 2020-Jul-09 05:03 UTC.
Position N 26°38' W 116°44'.
Warning: this ship's position is months out of date.

Length 190 m; draft 11.5 m.

Type: Cargo ship. MMSI: 311000239.

Date/timePositionNaut miles runAvg speedWind from/ knotsBaromVisibWave heightAir tempDewpointWater temp
2020-May-06 06:45N 26°38' W 116°44'1511.4
2020-May-06 05:27N 26°48' W 116°56'4811.4
2020-May-06 01:15N 27°19' W 117°37'1411.5
2020-May-05 23:59N 27°29' W 117°50'1111.7
2020-May-05 23:00N 27°36' W 117°59'2611.5
2020-May-05 20:43N 27°54' W 118°22'211.7
2020-May-05 20:30N 27°55' W 118°24'2911.7
2020-May-05 18:00N 28°12' W 118°51'2012.0
2020-May-05 16:19N 28°23' W 119°10'1511.4
2020-May-05 15:00N 28°31' W 119°25'2311.3
2020-May-05 13:00N 28°44' W 119°46'611.5
2020-May-05 12:30N 28°47' W 119°51'2311.5
2020-May-05 10:30N 28°60' W 120°13'3511.7
2020-May-05 07:30N 29°19' W 120°47'611.8
2020-May-05 07:00N 29°22' W 120°53'3411.4
2020-May-05 04:00N 29°41' W 121°26'1711.1
2020-May-05 02:30N 29°50' W 121°42'2811.3
2020-May-05 00:00N 30°07' W 122°08'1111.3
2020-May-04 23:00N 30°14' W 122°18'6411.6
2020-May-04 17:30N 30°56' W 123°14'1311.4
2020-May-04 16:24N 31°04' W 123°25'  
Track history (hours):
 
Tides and Currents Weather Stations Pressure Air Temp Water Temp Dewpoint Dewpoint Depression Visibility Wind Speed Wind Dir Waves Ship Positions

Endeavour

Operator: Lindblad Expeditions

Last reported at 2020-May-06 06:45 UTC. Time now 2020-Jul-09 05:03 UTC.
Position N 26°38' W 116°44'.
Warning: this ship's position is months out of date.

Length 190 m; draft 11.5 m.

Type: Cargo ship. MMSI: 311000239.

Date/timePositionNaut miles runAvg speedWind from/ knotsBaromVisibWave heightAir tempDewpointWater temp
2020-May-06 06:45N 26°38' W 116°44'1511.4
2020-May-06 05:27N 26°48' W 116°56'4811.4
2020-May-06 01:15N 27°19' W 117°37'1411.5
2020-May-05 23:59N 27°29' W 117°50'1111.7
2020-May-05 23:00N 27°36' W 117°59'2611.5
2020-May-05 20:43N 27°54' W 118°22'211.7
2020-May-05 20:30N 27°55' W 118°24'2911.7
2020-May-05 18:00N 28°12' W 118°51'2012.0
2020-May-05 16:19N 28°23' W 119°10'1511.4
2020-May-05 15:00N 28°31' W 119°25'2311.3
2020-May-05 13:00N 28°44' W 119°46'611.5
2020-May-05 12:30N 28°47' W 119°51'2311.5
2020-May-05 10:30N 28°60' W 120°13'3511.7
2020-May-05 07:30N 29°19' W 120°47'611.8
2020-May-05 07:00N 29°22' W 120°53'3411.4
2020-May-05 04:00N 29°41' W 121°26'1711.1
2020-May-05 02:30N 29°50' W 121°42'2811.3
2020-May-05 00:00N 30°07' W 122°08'1111.3
2020-May-04 23:00N 30°14' W 122°18'6411.6
2020-May-04 17:30N 30°56' W 123°14'1311.4
2020-May-04 16:24N 31°04' W 123°25'  

Dump ship's entire track history